| time (UTC) | temp F | wind direction | speed MPH | gust MPH | rain 1hr in | rain 24hr in | rain mn in | humidity % | barometer mb |
| 20260502123044 | 80 | 233 | 2.0 | 3.0 | 0.00 | 0.00 | 0.00 | 40 | 1012.7 |
| 20260502122046 | 80 | 244 | 3.0 | 5.0 | 0.00 | 0.00 | 0.00 | 41 | 1012.8 |
| 20260502121042 | 79 | 274 | 2.0 | 4.0 | 0.00 | 0.00 | 0.00 | 41 | 1012.9 |
| 20260502115057 | 78 | 0.0 | 0.0 | 0.00 | 0.00 | 0.00 | 41 | 1013.1 | |
| 20260502114029 | 77 | 225 | 0.0 | 1.0 | 0.00 | 0.00 | 0.00 | 42 | 1013.2 |
| 20260502113029 | 76 | 208 | 1.0 | 2.0 | 0.00 | 0.00 | 0.00 | 42 | 1013.3 |
| 20260502112027 | 75 | 0.0 | 0.0 | 0.00 | 0.00 | 0.00 | 42 | 1013.4 | |
| 20260502111030 | 75 | 181 | 1.0 | 2.0 | 0.00 | 0.00 | 0.00 | 41 | 1013.4 |
| 20260502110024 | 74 | 293 | 1.0 | 1.0 | 0.00 | 0.00 | 0.00 | 40 | 1013.5 |
| 20260502105025 | 75 | 0.0 | 0.0 | 0.00 | 0.00 | 0.00 | 39 | 1013.6 | |
| 20260502104047 | 75 | 0.0 | 0.0 | 0.00 | 0.00 | 0.00 | 38 | 1013.7 | |
| 20260502103044 | 75 | 239 | 4.0 | 5.0 | 0.00 | 0.00 | 0.00 | 37 | 1013.7 |
| 20260502102038 | 76 | 68 | 0.0 | 1.0 | 0.00 | 0.00 | 0.00 | 37 | 1013.6 |
| 20260502101055 | 77 | 248 | 0.0 | 2.0 | 0.00 | 0.00 | 0.00 | 38 | 1013.7 |
| 20260502091031 | 77 | 0.0 | 0.0 | 0.00 | 0.00 | 0.00 | 33 | 1014.0 | |
| 20260502071031 | 74 | 248 | 1.0 | 3.0 | 0.00 | 0.00 | 0.00 | 39 | 1014.4 |
| 20260502070050 | 72 | 270 | 1.0 | 2.0 | 0.00 | 0.00 | 0.00 | 43 | 1014.5 |
| 20260502065031 | 67 | 0.0 | 0.0 | 0.00 | 0.00 | 0.00 | 48 | 1014.5 | |
| 20260502064023 | 61 | 0.0 | 0.0 | 0.00 | 0.00 | 0.00 | 52 | 1014.5 | |
| 20260502063030 | 59 | 0.0 | 0.0 | 0.00 | 0.00 | 0.00 | 53 | 1014.4 | |
| 20260502062025 | 58 | 0.0 | 0.0 | 0.00 | 0.00 | 0.00 | 54 | 1014.3 | |
| 20260502061025 | 57 | 248 | 0.0 | 1.0 | 0.00 | 0.00 | 0.00 | 54 | 1014.4 |
| 20260502060100 | 56 | 0.0 | 0.0 | 0.00 | 0.00 | 0.00 | 54 | 1014.4 | |
| 20260502055044 | 56 | 293 | 0.0 | 1.0 | 0.00 | 0.00 | 0.00 | 54 | 1014.6 |
| 20260502054047 | 55 | 0.0 | 0.0 | 0.00 | 0.00 | 0.00 | 54 | 1014.5 | |
| 20260502053044 | 55 | 0.0 | 0.0 | 0.00 | 0.00 | 0.00 | 54 | 1014.6 | |
| 20260502052044 | 55 | 270 | 1.0 | 1.0 | 0.00 | 0.00 | 0.00 | 54 | 1014.5 |
| 20260502051038 | 55 | 257 | 2.0 | 3.0 | 0.00 | 0.00 | 0.00 | 54 | 1014.4 |
| 20260502050038 | 54 | 248 | 0.0 | 1.0 | 0.00 | 0.00 | 0.00 | 54 | 1014.4 |
| 20260502045024 | 54 | 293 | 0.0 | 1.0 | 0.00 | 0.00 | 0.00 | 53 | 1014.5 |
| 20260502044024 | 54 | 0.0 | 0.0 | 0.00 | 0.00 | 0.00 | 53 | 1014.6 | |
| 20260502043048 | 54 | 248 | 1.0 | 1.0 | 0.00 | 0.00 | 0.00 | 52 | 1014.7 |
| 20260502042039 | 54 | 293 | 0.0 | 1.0 | 0.00 | 0.00 | 0.00 | 52 | 1014.7 |
| 20260502041019 | 54 | 0.0 | 0.0 | 0.00 | 0.00 | 0.00 | 52 | 1014.7 | |
| 20260502040042 | 55 | 0.0 | 0.0 | 0.00 | 0.00 | 0.00 | 51 | 1014.9 | |
| 20260502035044 | 55 | 0.0 | 0.0 | 0.00 | 0.00 | 0.00 | 51 | 1014.9 | |
| 20260502034047 | 55 | 293 | 0.0 | 1.0 | 0.00 | 0.00 | 0.00 | 50 | 1015.0 |
| 20260502033046 | 55 | 270 | 1.0 | 2.0 | 0.00 | 0.00 | 0.00 | 50 | 1014.9 |
| 20260502032043 | 55 | 0.0 | 0.0 | 0.00 | 0.00 | 0.00 | 50 | 1015.0 | |
| 20260502031040 | 55 | 0.0 | 0.0 | 0.00 | 0.00 | 0.00 | 50 | 1015.1 | |
| 20260502030036 | 56 | 277 | 1.0 | 1.0 | 0.00 | 0.00 | 0.00 | 49 | 1015.2 |
| 20260502025029 | 56 | 0.0 | 0.0 | 0.00 | 0.00 | 0.00 | 49 | 1015.2 | |
| 20260502024030 | 56 | 0.0 | 0.0 | 0.00 | 0.00 | 0.00 | 49 | 1015.2 | |
| 20260502023030 | 56 | 270 | 1.0 | 2.0 | 0.00 | 0.00 | 0.00 | 48 | 1015.3 |
| 20260502022033 | 56 | 293 | 0.0 | 1.0 | 0.00 | 0.00 | 0.00 | 48 | 1015.4 |
| 20260502021029 | 56 | 0.0 | 0.0 | 0.00 | 0.00 | 0.00 | 48 | 1015.4 | |
| 20260502020024 | 57 | 248 | 1.0 | 2.0 | 0.00 | 0.00 | 0.00 | 48 | 1015.5 |
| 20260502015109 | 57 | 0.0 | 0.0 | 0.00 | 0.00 | 0.00 | 47 | 1015.6 | |
| 20260502014041 | 57 | 203 | 0.0 | 1.0 | 0.00 | 0.00 | 0.00 | 47 | 1015.7 |
| 20260502013030 | 57 | 293 | 0.0 | 1.0 | 0.00 | 0.00 | 0.00 | 46 | 1015.9 |
| 20260502012049 | 57 | 293 | 0.0 | 1.0 | 0.00 | 0.00 | 0.00 | 46 | 1016.0 |
| 20260502011021 | 58 | 0.0 | 0.0 | 0.00 | 0.00 | 0.00 | 45 | 1016.0 | |
| 20260502010305 | 58 | 0.0 | 0.0 | 0.00 | 0.00 | 0.00 | 45 | 1016.1 | |
| 20260502005022 | 58 | 270 | 0.0 | 1.0 | 0.00 | 0.00 | 0.00 | 45 | 1016.2 |
| 20260502004044 | 59 | 270 | 0.0 | 1.0 | 0.00 | 0.00 | 0.00 | 45 | 1016.3 |
| 20260502003045 | 59 | 270 | 0.0 | 1.0 | 0.00 | 0.00 | 0.00 | 44 | 1016.4 |
| 20260502002036 | 59 | 270 | 0.0 | 1.0 | 0.00 | 0.00 | 0.00 | 44 | 1016.4 |
| 20260502001034 | 59 | 0.0 | 0.0 | 0.00 | 0.00 | 0.00 | 44 | 1016.5 | |
| 20260502000031 | 59 | 0.0 | 0.0 | 0.00 | 0.00 | 0.00 | 44 | 1016.6 | |
| 20260501235024 | 59 | 0.0 | 0.0 | 0.00 | 0.00 | 0.00 | 43 | 1016.7 | |
| 20260501234049 | 59 | 0.0 | 0.0 | 0.00 | 0.00 | 0.00 | 43 | 1016.7 | |
| 20260501233045 | 59 | 0.0 | 0.0 | 0.00 | 0.00 | 0.00 | 42 | 1016.7 | |
| 20260501232130 | 60 | 0.0 | 0.0 | 0.00 | 0.00 | 0.00 | 42 | 1016.7 | |
| 20260501231040 | 60 | 0.0 | 0.0 | 0.00 | 0.00 | 0.00 | 42 | 1016.8 | |
| 20260501230045 | 61 | 0.0 | 0.0 | 0.00 | 0.00 | 0.00 | 41 | 1016.8 | |
| 20260501225118 | 61 | 0.0 | 0.0 | 0.00 | 0.00 | 0.00 | 41 | 1016.9 | |
| 20260501224036 | 61 | 248 | 0.0 | 1.0 | 0.00 | 0.00 | 0.00 | 41 | 1016.9 |
| 20260501223050 | 61 | 0.0 | 0.0 | 0.00 | 0.00 | 0.00 | 41 | 1017.0 | |
| 20260501222030 | 61 | 0.0 | 0.0 | 0.00 | 0.00 | 0.00 | 41 | 1017.0 | |
| 20260501221031 | 61 | 0.0 | 0.0 | 0.00 | 0.00 | 0.00 | 41 | 1017.1 | |
| 20260501220026 | 61 | 0.0 | 0.0 | 0.00 | 0.00 | 0.00 | 41 | 1017.1 | |
| 20260501215024 | 62 | 0.0 | 0.0 | 0.00 | 0.00 | 0.00 | 41 | 1017.2 | |
| 20260501214022 | 62 | 0.0 | 0.0 | 0.00 | 0.00 | 0.00 | 41 | 1017.2 | |
| 20260501213018 | 62 | 0.0 | 0.0 | 0.00 | 0.00 | 0.00 | 41 | 1017.2 | |
| 20260501212023 | 62 | 0.0 | 0.0 | 0.00 | 0.00 | 0.00 | 41 | 1017.2 | |
| 20260501211045 | 62 | 0.0 | 0.0 | 0.00 | 0.00 | 0.00 | 41 | 1017.2 | |
| 20260501210022 | 62 | 0.0 | 0.0 | 0.00 | 0.00 | 0.00 | 40 | 1017.3 | |
| 20260501205019 | 63 | 0.0 | 0.0 | 0.00 | 0.00 | 0.00 | 40 | 1017.3 | |
| 20260501204038 | 63 | 0.0 | 0.0 | 0.00 | 0.00 | 0.00 | 40 | 1017.4 | |
| 20260501203036 | 64 | 0.0 | 0.0 | 0.00 | 0.00 | 0.00 | 39 | 1017.4 | |
| 20260501202038 | 64 | 0.0 | 0.0 | 0.00 | 0.00 | 0.00 | 38 | 1017.5 | |
| 20260501201037 | 65 | 0.0 | 0.0 | 0.00 | 0.00 | 0.00 | 38 | 1017.5 | |
| 20260501200029 | 66 | 0.0 | 0.0 | 0.00 | 0.00 | 0.00 | 37 | 1017.5 | |
| 20260501195031 | 67 | 0.0 | 0.0 | 0.00 | 0.00 | 0.00 | 36 | 1017.4 | |
| 20260501194019 | 68 | 0.0 | 0.0 | 0.00 | 0.00 | 0.00 | 35 | 1017.4 | |
| 20260501193041 | 69 | 0.0 | 0.0 | 0.00 | 0.00 | 0.00 | 34 | 1017.3 | |
| 20260501192115 | 70 | 0.0 | 0.0 | 0.00 | 0.00 | 0.00 | 33 | 1017.3 | |
| 20260501191056 | 71 | 0.0 | 0.0 | 0.00 | 0.00 | 0.00 | 33 | 1017.3 | |
| 20260501190037 | 71 | 0.0 | 0.0 | 0.00 | 0.00 | 0.00 | 32 | 1017.3 | |
| 20260501185037 | 72 | 261 | 1.0 | 2.0 | 0.00 | 0.00 | 0.00 | 31 | 1017.3 |
| 20260501184033 | 73 | 293 | 0.0 | 1.0 | 0.00 | 0.00 | 0.00 | 31 | 1017.3 |
| 20260501183035 | 73 | 270 | 0.0 | 2.0 | 0.00 | 0.00 | 0.00 | 30 | 1017.3 |
| 20260501182028 | 74 | 301 | 1.0 | 1.0 | 0.00 | 0.00 | 0.00 | 29 | 1017.2 |
| 20260501181031 | 75 | 293 | 0.0 | 1.0 | 0.00 | 0.00 | 0.00 | 29 | 1017.2 |
| 20260501180028 | 75 | 286 | 1.0 | 2.0 | 0.00 | 0.00 | 0.00 | 28 | 1017.1 |
| 20260501175025 | 76 | 248 | 0.0 | 2.0 | 0.00 | 0.00 | 0.00 | 28 | 1017.1 |
| 20260501174024 | 77 | 270 | 1.0 | 2.0 | 0.00 | 0.00 | 0.00 | 27 | 1017.1 |
| 20260501173019 | 78 | 270 | 0.0 | 2.0 | 0.00 | 0.00 | 0.00 | 27 | 1017.1 |
| 20260501172046 | 79 | 291 | 1.0 | 2.0 | 0.00 | 0.00 | 0.00 | 26 | 1017.1 |
| 20260501171106 | 79 | 253 | 6.0 | 9.0 | 0.00 | 0.00 | 0.00 | 26 | 1017.2 |
| 20260501170047 | 80 | 284 | 6.0 | 9.0 | 0.00 | 0.00 | 0.00 | 26 | 1017.3 |
| 20260501165045 | 80 | 315 | 1.0 | 2.0 | 0.00 | 0.00 | 0.00 | 26 | 1017.5 |
| 20260501164036 | 80 | 315 | 1.0 | 2.0 | 0.00 | 0.00 | 0.00 | 26 | 1017.6 |
| 20260501163034 | 80 | 287 | 4.0 | 5.0 | 0.00 | 0.00 | 0.00 | 26 | 1017.6 |
| 20260501162029 | 80 | 282 | 3.0 | 4.0 | 0.00 | 0.00 | 0.00 | 26 | 1017.7 |
| 20260501161024 | 81 | 291 | 4.0 | 4.0 | 0.00 | 0.00 | 0.00 | 26 | 1017.8 |
| 20260501160031 | 81 | 272 | 2.0 | 4.0 | 0.00 | 0.00 | 0.00 | 26 | 1017.8 |
| 20260501155047 | 80 | 293 | 0.0 | 2.0 | 0.00 | 0.00 | 0.00 | 26 | 1018.0 |
| 20260501154019 | 80 | 278 | 4.0 | 5.0 | 0.00 | 0.00 | 0.00 | 26 | 1018.2 |
| 20260501153049 | 80 | 285 | 2.0 | 3.0 | 0.00 | 0.00 | 0.00 | 26 | 1018.3 |
| 20260501152057 | 80 | 281 | 2.0 | 4.0 | 0.00 | 0.00 | 0.00 | 26 | 1018.4 |
| 20260501151031 | 80 | 264 | 3.0 | 5.0 | 0.00 | 0.00 | 0.00 | 27 | 1018.6 |
| 20260501150030 | 79 | 26 | 1.0 | 2.0 | 0.00 | 0.00 | 0.00 | 27 | 1018.6 |